Rock Springs, Wyoming
Current Conditions -  °F | °C
As of 7:54 AM on Tuesday 21 Oct 2014 (Local Time) from KRKS Reporting Station
Clear Clear  
Wind Chill: 50°   Ceiling: Unl
Heat Index: 50°   Visibility: 10mi
Dew Point: 35°   Wind: 7mph
Humidity: 57%   Direction: 160°SSE
Pressure: 30.03"   Gusts: NA
Location:  41.59°N, 109.22°W
Report Text: KRKS 211354Z AUTO 16006KT 10SM CLR 10/02 A3003 RMK AO2 SLP115 T01000017
Loading
Personal Weather Stations






























Interactive Weather Map
Tropical Storm Tracking
New forecast layout! Learn more

10-Day Weather Forecast

Advertisements
Track Severe Weather on mobile